sensor_id;sensor_type;location;lat;lon;timestamp;P1;durP1;ratioP1;P2;durP2;ratioP2
261;SDS011;114;48.260;10.988;2023-06-01T00:01:27;11.83;;;5.60;;
261;SDS011;114;48.260;10.988;2023-06-01T00:03:58;8.60;;;5.07;;
261;SDS011;114;48.260;10.988;2023-06-01T00:06:24;7.97;;;5.50;;
261;SDS011;114;48.260;10.988;2023-06-01T00:08:53;10.87;;;5.77;;
261;SDS011;114;48.260;10.988;2023-06-01T00:11:19;11.70;;;5.30;;
261;SDS011;114;48.260;10.988;2023-06-01T00:13:46;11.80;;;5.20;;
261;SDS011;114;48.260;10.988;2023-06-01T00:16:11;6.00;;;5.13;;
261;SDS011;114;48.260;10.988;2023-06-01T00:18:37;10.93;;;5.97;;
261;SDS011;114;48.260;10.988;2023-06-01T00:21:03;8.30;;;6.33;;
261;SDS011;114;48.260;10.988;2023-06-01T00:23:28;8.00;;;6.30;;
261;SDS011;114;48.260;10.988;2023-06-01T00:25:54;9.53;;;5.60;;
261;SDS011;114;48.260;10.988;2023-06-01T00:28:20;8.90;;;6.50;;
261;SDS011;114;48.260;10.988;2023-06-01T00:30:45;8.07;;;5.80;;
261;SDS011;114;48.260;10.988;2023-06-01T00:33:11;8.17;;;5.63;;
261;SDS011;114;48.260;10.988;2023-06-01T00:35:37;9.07;;;5.47;;
261;SDS011;114;48.260;10.988;2023-06-01T00:38:02;7.63;;;6.37;;
261;SDS011;114;48.260;10.988;2023-06-01T00:40:28;21.60;;;6.27;;
261;SDS011;114;48.260;10.988;2023-06-01T00:42:54;9.23;;;5.63;;
261;SDS011;114;48.260;10.988;2023-06-01T00:45:19;7.73;;;5.20;;
261;SDS011;114;48.260;10.988;2023-06-01T00:47:45;8.73;;;5.60;;
261;SDS011;114;48.260;10.988;2023-06-01T00:50:11;8.60;;;5.87;;
261;SDS011;114;48.260;10.988;2023-06-01T00:52:37;6.70;;;5.13;;
261;SDS011;114;48.260;10.988;2023-06-01T00:55:04;7.53;;;5.80;;
261;SDS011;114;48.260;10.988;2023-06-01T00:57:31;13.70;;;6.80;;
261;SDS011;114;48.260;10.988;2023-06-01T00:59:58;13.03;;;6.60;;
261;SDS011;114;48.260;10.988;2023-06-01T01:02:24;9.13;;;6.07;;
261;SDS011;114;48.260;10.988;2023-06-01T01:04:49;11.57;;;5.67;;
261;SDS011;114;48.260;10.988;2023-06-01T01:09:56;10.93;;;5.63;;
261;SDS011;114;48.260;10.988;2023-06-01T01:15:11;10.27;;;6.00;;
261;SDS011;114;48.260;10.988;2023-06-01T01:17:45;8.60;;;5.83;;
261;SDS011;114;48.260;10.988;2023-06-01T01:20:21;10.87;;;6.30;;
261;SDS011;114;48.260;10.988;2023-06-01T01:31:04;9.53;;;6.27;;
261;SDS011;114;48.260;10.988;2023-06-01T01:33:33;6.20;;;5.57;;
261;SDS011;114;48.260;10.988;2023-06-01T01:36:00;12.30;;;5.97;;
261;SDS011;114;48.260;10.988;2023-06-01T01:38:26;9.77;;;5.80;;
261;SDS011;114;48.260;10.988;2023-06-01T01:40:52;9.23;;;6.27;;
261;SDS011;114;48.260;10.988;2023-06-01T01:43:20;8.67;;;5.77;;
261;SDS011;114;48.260;10.988;2023-06-01T01:45:48;8.40;;;6.60;;
261;SDS011;114;48.260;10.988;2023-06-01T01:48:22;8.83;;;6.57;;
261;SDS011;114;48.260;10.988;2023-06-01T01:50:53;13.87;;;6.20;;
261;SDS011;114;48.260;10.988;2023-06-01T01:53:23;8.40;;;6.70;;
261;SDS011;114;48.260;10.988;2023-06-01T01:55:51;11.77;;;6.10;;
261;SDS011;114;48.260;10.988;2023-06-01T01:58:18;9.60;;;6.10;;
261;SDS011;114;48.260;10.988;2023-06-01T02:00:44;11.70;;;7.03;;
261;SDS011;114;48.260;10.988;2023-06-01T02:03:16;8.03;;;5.47;;
261;SDS011;114;48.260;10.988;2023-06-01T02:05:43;8.70;;;6.30;;
261;SDS011;114;48.260;10.988;2023-06-01T02:08:09;9.87;;;6.73;;
261;SDS011;114;48.260;10.988;2023-06-01T02:10:36;7.50;;;6.37;;
261;SDS011;114;48.260;10.988;2023-06-01T02:13:02;14.13;;;6.87;;
261;SDS011;114;48.260;10.988;2023-06-01T02:15:28;16.00;;;6.63;;
261;SDS011;114;48.260;10.988;2023-06-01T02:17:54;13.20;;;8.23;;
261;SDS011;114;48.260;10.988;2023-06-01T02:20:20;12.43;;;6.93;;
261;SDS011;114;48.260;10.988;2023-06-01T02:22:45;6.87;;;6.17;;
261;SDS011;114;48.260;10.988;2023-06-01T02:25:11;8.53;;;6.50;;
261;SDS011;114;48.260;10.988;2023-06-01T02:27:37;9.47;;;5.80;;
261;SDS011;114;48.260;10.988;2023-06-01T02:30:03;6.67;;;5.83;;
261;SDS011;114;48.260;10.988;2023-06-01T02:32:31;8.07;;;6.60;;
261;SDS011;114;48.260;10.988;2023-06-01T02:34:57;9.03;;;6.83;;
261;SDS011;114;48.260;10.988;2023-06-01T02:37:23;9.93;;;6.57;;
261;SDS011;114;48.260;10.988;2023-06-01T02:39:49;11.93;;;7.57;;
261;SDS011;114;48.260;10.988;2023-06-01T02:42:15;12.70;;;7.90;;
261;SDS011;114;48.260;10.988;2023-06-01T02:44:41;18.53;;;7.73;;
261;SDS011;114;48.260;10.988;2023-06-01T02:47:06;11.50;;;7.27;;
261;SDS011;114;48.260;10.988;2023-06-01T02:49:32;9.40;;;6.60;;
261;SDS011;114;48.260;10.988;2023-06-01T02:51:58;11.90;;;6.63;;
261;SDS011;114;48.260;10.988;2023-06-01T02:54:24;8.97;;;6.20;;
261;SDS011;114;48.260;10.988;2023-06-01T02:56:49;7.87;;;6.50;;
261;SDS011;114;48.260;10.988;2023-06-01T02:59:15;7.80;;;6.30;;
261;SDS011;114;48.260;10.988;2023-06-01T03:01:41;27.10;;;6.90;;
261;SDS011;114;48.260;10.988;2023-06-01T03:04:07;14.90;;;6.80;;
261;SDS011;114;48.260;10.988;2023-06-01T03:06:33;8.20;;;6.90;;
261;SDS011;114;48.260;10.988;2023-06-01T03:09:02;9.90;;;6.10;;
261;SDS011;114;48.260;10.988;2023-06-01T03:11:29;11.90;;;6.90;;
261;SDS011;114;48.260;10.988;2023-06-01T03:13:55;10.27;;;6.20;;
261;SDS011;114;48.260;10.988;2023-06-01T03:16:22;6.83;;;6.03;;
261;SDS011;114;48.260;10.988;2023-06-01T03:18:48;8.03;;;6.77;;
261;SDS011;114;48.260;10.988;2023-06-01T03:21:14;7.97;;;7.20;;
261;SDS011;114;48.260;10.988;2023-06-01T03:23:41;12.60;;;7.77;;
261;SDS011;114;48.260;10.988;2023-06-01T03:26:11;12.90;;;7.07;;
261;SDS011;114;48.260;10.988;2023-06-01T03:28:37;7.37;;;6.70;;
261;SDS011;114;48.260;10.988;2023-06-01T03:31:04;8.07;;;6.97;;
261;SDS011;114;48.260;10.988;2023-06-01T03:33:30;11.03;;;7.47;;
261;SDS011;114;48.260;10.988;2023-06-01T03:35:55;7.50;;;6.70;;
261;SDS011;114;48.260;10.988;2023-06-01T03:38:21;9.40;;;6.53;;
261;SDS011;114;48.260;10.988;2023-06-01T03:40:48;11.20;;;7.10;;
261;SDS011;114;48.260;10.988;2023-06-01T03:43:13;8.37;;;7.57;;
261;SDS011;114;48.260;10.988;2023-06-01T03:45:39;11.97;;;7.60;;
261;SDS011;114;48.260;10.988;2023-06-01T03:48:05;8.57;;;7.27;;
261;SDS011;114;48.260;10.988;2023-06-01T03:50:31;12.93;;;7.40;;
261;SDS011;114;48.260;10.988;2023-06-01T03:52:56;14.90;;;8.17;;
261;SDS011;114;48.260;10.988;2023-06-01T03:55:22;9.03;;;7.60;;
261;SDS011;114;48.260;10.988;2023-06-01T03:57:48;10.10;;;7.33;;
261;SDS011;114;48.260;10.988;2023-06-01T04:00:14;7.77;;;6.97;;
261;SDS011;114;48.260;10.988;2023-06-01T04:02:55;7.73;;;7.03;;
261;SDS011;114;48.260;10.988;2023-06-01T04:05:26;11.50;;;8.00;;
261;SDS011;114;48.260;10.988;2023-06-01T04:07:52;16.13;;;7.07;;
261;SDS011;114;48.260;10.988;2023-06-01T04:10:19;17.63;;;8.17;;
261;SDS011;114;48.260;10.988;2023-06-01T04:12:46;11.20;;;7.80;;
261;SDS011;114;48.260;10.988;2023-06-01T04:15:14;10.23;;;7.87;;
261;SDS011;114;48.260;10.988;2023-06-01T04:17:41;11.83;;;7.37;;
261;SDS011;114;48.260;10.988;2023-06-01T04:20:13;8.73;;;6.87;;
261;SDS011;114;48.260;10.988;2023-06-01T04:22:41;15.10;;;7.33;;
261;SDS011;114;48.260;10.988;2023-06-01T04:25:08;10.57;;;7.30;;
261;SDS011;114;48.260;10.988;2023-06-01T04:27:37;8.63;;;7.73;;
261;SDS011;114;48.260;10.988;2023-06-01T04:30:10;7.87;;;7.10;;
261;SDS011;114;48.260;10.988;2023-06-01T04:32:36;10.93;;;7.10;;
261;SDS011;114;48.260;10.988;2023-06-01T04:35:03;12.33;;;7.63;;
261;SDS011;114;48.260;10.988;2023-06-01T04:37:33;11.70;;;7.20;;
261;SDS011;114;48.260;10.988;2023-06-01T04:40:05;11.70;;;7.83;;
261;SDS011;114;48.260;10.988;2023-06-01T04:42:33;9.93;;;7.47;;
261;SDS011;114;48.260;10.988;2023-06-01T04:45:02;19.20;;;7.97;;
261;SDS011;114;48.260;10.988;2023-06-01T04:47:30;15.00;;;8.53;;
261;SDS011;114;48.260;10.988;2023-06-01T04:49:56;19.47;;;8.70;;
261;SDS011;114;48.260;10.988;2023-06-01T04:52:23;14.27;;;7.90;;
261;SDS011;114;48.260;10.988;2023-06-01T04:54:49;14.87;;;9.00;;
261;SDS011;114;48.260;10.988;2023-06-01T04:57:15;14.17;;;9.60;;
261;SDS011;114;48.260;10.988;2023-06-01T04:59:41;13.77;;;8.87;;
261;SDS011;114;48.260;10.988;2023-06-01T05:02:07;27.10;;;8.13;;
261;SDS011;114;48.260;10.988;2023-06-01T05:04:33;14.73;;;7.90;;
261;SDS011;114;48.260;10.988;2023-06-01T05:06:59;24.33;;;8.60;;
261;SDS011;114;48.260;10.988;2023-06-01T05:09:25;25.00;;;8.50;;
261;SDS011;114;48.260;10.988;2023-06-01T05:11:50;23.30;;;7.80;;
261;SDS011;114;48.260;10.988;2023-06-01T05:14:16;23.73;;;8.37;;
261;SDS011;114;48.260;10.988;2023-06-01T05:16:42;20.20;;;9.33;;
261;SDS011;114;48.260;10.988;2023-06-01T05:19:07;9.80;;;7.50;;
261;SDS011;114;48.260;10.988;2023-06-01T05:21:33;13.57;;;7.63;;
261;SDS011;114;48.260;10.988;2023-06-01T05:23:59;10.10;;;7.67;;
261;SDS011;114;48.260;10.988;2023-06-01T05:26:25;10.27;;;7.10;;
261;SDS011;114;48.260;10.988;2023-06-01T05:28:52;9.20;;;7.00;;
261;SDS011;114;48.260;10.988;2023-06-01T05:31:17;11.00;;;7.20;;
261;SDS011;114;48.260;10.988;2023-06-01T05:33:44;9.30;;;6.53;;
261;SDS011;114;48.260;10.988;2023-06-01T05:36:09;9.17;;;7.40;;
261;SDS011;114;48.260;10.988;2023-06-01T05:38:35;7.73;;;6.33;;
261;SDS011;114;48.260;10.988;2023-06-01T05:41:02;9.17;;;7.10;;
261;SDS011;114;48.260;10.988;2023-06-01T05:43:27;9.83;;;7.07;;
261;SDS011;114;48.260;10.988;2023-06-01T05:45:53;12.80;;;6.77;;
261;SDS011;114;48.260;10.988;2023-06-01T05:48:19;10.93;;;6.90;;
261;SDS011;114;48.260;10.988;2023-06-01T05:50:44;16.33;;;7.80;;
261;SDS011;114;48.260;10.988;2023-06-01T05:53:10;11.90;;;6.30;;
261;SDS011;114;48.260;10.988;2023-06-01T05:55:36;9.63;;;6.27;;
261;SDS011;114;48.260;10.988;2023-06-01T05:58:01;11.43;;;6.20;;
261;SDS011;114;48.260;10.988;2023-06-01T06:00:27;7.30;;;6.07;;
261;SDS011;114;48.260;10.988;2023-06-01T06:02:53;10.87;;;6.17;;
261;SDS011;114;48.260;10.988;2023-06-01T06:05:18;7.37;;;5.50;;
261;SDS011;114;48.260;10.988;2023-06-01T06:07:44;7.67;;;5.73;;
261;SDS011;114;48.260;10.988;2023-06-01T06:10:11;11.40;;;5.20;;
261;SDS011;114;48.260;10.988;2023-06-01T06:12:37;13.83;;;5.87;;
261;SDS011;114;48.260;10.988;2023-06-01T06:15:03;8.40;;;5.20;;
261;SDS011;114;48.260;10.988;2023-06-01T06:17:29;8.47;;;4.43;;
261;SDS011;114;48.260;10.988;2023-06-01T06:19:55;10.80;;;6.07;;
261;SDS011;114;48.260;10.988;2023-06-01T06:22:20;15.40;;;5.50;;
261;SDS011;114;48.260;10.988;2023-06-01T06:24:46;13.53;;;5.30;;
261;SDS011;114;48.260;10.988;2023-06-01T06:27:12;8.90;;;5.27;;
261;SDS011;114;48.260;10.988;2023-06-01T06:29:38;7.47;;;4.87;;
261;SDS011;114;48.260;10.988;2023-06-01T06:32:03;10.50;;;5.00;;
261;SDS011;114;48.260;10.988;2023-06-01T06:34:30;13.10;;;5.67;;
261;SDS011;114;48.260;10.988;2023-06-01T06:37:04;7.03;;;5.20;;
261;SDS011;114;48.260;10.988;2023-06-01T06:39:31;7.80;;;5.03;;
261;SDS011;114;48.260;10.988;2023-06-01T06:41:57;7.17;;;5.10;;
261;SDS011;114;48.260;10.988;2023-06-01T06:44:24;8.30;;;4.83;;
261;SDS011;114;48.260;10.988;2023-06-01T06:46:50;10.43;;;4.80;;
261;SDS011;114;48.260;10.988;2023-06-01T06:49:15;14.83;;;5.40;;
261;SDS011;114;48.260;10.988;2023-06-01T06:51:43;11.23;;;4.33;;
261;SDS011;114;48.260;10.988;2023-06-01T06:54:09;9.00;;;4.93;;
261;SDS011;114;48.260;10.988;2023-06-01T06:56:35;7.83;;;4.40;;
261;SDS011;114;48.260;10.988;2023-06-01T06:59:01;4.70;;;3.97;;
261;SDS011;114;48.260;10.988;2023-06-01T07:01:27;10.97;;;4.90;;
261;SDS011;114;48.260;10.988;2023-06-01T07:03:52;7.53;;;5.30;;
261;SDS011;114;48.260;10.988;2023-06-01T07:06:18;10.93;;;4.90;;
261;SDS011;114;48.260;10.988;2023-06-01T07:08:45;9.30;;;4.53;;
261;SDS011;114;48.260;10.988;2023-06-01T07:11:11;8.70;;;4.93;;
261;SDS011;114;48.260;10.988;2023-06-01T07:13:36;6.60;;;5.07;;
261;SDS011;114;48.260;10.988;2023-06-01T07:16:03;8.30;;;4.10;;
261;SDS011;114;48.260;10.988;2023-06-01T07:18:29;13.20;;;4.83;;
261;SDS011;114;48.260;10.988;2023-06-01T07:20:56;8.00;;;4.70;;
261;SDS011;114;48.260;10.988;2023-06-01T07:23:23;6.83;;;4.80;;
261;SDS011;114;48.260;10.988;2023-06-01T07:25:48;8.70;;;4.80;;
261;SDS011;114;48.260;10.988;2023-06-01T07:28:14;6.57;;;4.07;;
261;SDS011;114;48.260;10.988;2023-06-01T07:30:40;6.83;;;4.60;;
261;SDS011;114;48.260;10.988;2023-06-01T07:33:06;8.40;;;5.13;;
261;SDS011;114;48.260;10.988;2023-06-01T07:35:33;6.73;;;5.13;;
261;SDS011;114;48.260;10.988;2023-06-01T07:37:58;11.60;;;4.90;;
261;SDS011;114;48.260;10.988;2023-06-01T07:40:25;13.50;;;5.80;;
261;SDS011;114;48.260;10.988;2023-06-01T07:42:51;11.73;;;5.20;;
261;SDS011;114;48.260;10.988;2023-06-01T07:45:16;10.67;;;4.97;;
261;SDS011;114;48.260;10.988;2023-06-01T07:47:42;16.37;;;4.53;;
261;SDS011;114;48.260;10.988;2023-06-01T07:50:08;12.07;;;5.47;;
261;SDS011;114;48.260;10.988;2023-06-01T07:52:34;7.00;;;5.07;;
261;SDS011;114;48.260;10.988;2023-06-01T07:54:59;10.17;;;5.00;;
261;SDS011;114;48.260;10.988;2023-06-01T07:57:26;8.63;;;4.57;;
261;SDS011;114;48.260;10.988;2023-06-01T07:59:52;10.33;;;4.90;;
261;SDS011;114;48.260;10.988;2023-06-01T08:02:17;8.87;;;5.40;;
261;SDS011;114;48.260;10.988;2023-06-01T08:04:45;18.30;;;5.80;;
261;SDS011;114;48.260;10.988;2023-06-01T08:07:12;7.67;;;4.63;;
261;SDS011;114;48.260;10.988;2023-06-01T08:09:40;18.13;;;5.77;;
261;SDS011;114;48.260;10.988;2023-06-01T08:12:07;8.73;;;4.50;;
261;SDS011;114;48.260;10.988;2023-06-01T08:14:33;11.27;;;5.27;;
261;SDS011;114;48.260;10.988;2023-06-01T08:16:59;13.73;;;5.47;;
261;SDS011;114;48.260;10.988;2023-06-01T08:19:28;12.73;;;4.50;;
261;SDS011;114;48.260;10.988;2023-06-01T08:21:54;5.70;;;4.40;;
261;SDS011;114;48.260;10.988;2023-06-01T08:24:20;7.43;;;4.53;;
261;SDS011;114;48.260;10.988;2023-06-01T08:26:48;9.67;;;5.00;;
261;SDS011;114;48.260;10.988;2023-06-01T08:29:13;8.00;;;4.63;;
261;SDS011;114;48.260;10.988;2023-06-01T08:31:39;15.23;;;5.63;;
261;SDS011;114;48.260;10.988;2023-06-01T08:34:05;12.57;;;5.13;;
261;SDS011;114;48.260;10.988;2023-06-01T08:36:31;6.70;;;4.37;;
261;SDS011;114;48.260;10.988;2023-06-01T08:38:57;6.80;;;5.07;;
261;SDS011;114;48.260;10.988;2023-06-01T08:41:44;8.00;;;5.00;;
261;SDS011;114;48.260;10.988;2023-06-01T08:44:18;7.13;;;4.93;;
261;SDS011;114;48.260;10.988;2023-06-01T08:46:47;10.60;;;5.00;;
261;SDS011;114;48.260;10.988;2023-06-01T08:49:13;5.33;;;4.83;;
261;SDS011;114;48.260;10.988;2023-06-01T08:51:40;6.90;;;5.03;;
261;SDS011;114;48.260;10.988;2023-06-01T08:54:08;19.83;;;4.80;;
261;SDS011;114;48.260;10.988;2023-06-01T08:56:35;5.90;;;4.60;;
261;SDS011;114;48.260;10.988;2023-06-01T08:59:02;8.83;;;4.53;;
261;SDS011;114;48.260;10.988;2023-06-01T09:01:28;4.90;;;4.50;;
261;SDS011;114;48.260;10.988;2023-06-01T09:03:54;5.03;;;4.40;;
261;SDS011;114;48.260;10.988;2023-06-01T09:06:20;6.10;;;4.90;;
261;SDS011;114;48.260;10.988;2023-06-01T09:08:46;7.00;;;4.37;;
261;SDS011;114;48.260;10.988;2023-06-01T09:11:12;10.97;;;5.63;;
261;SDS011;114;48.260;10.988;2023-06-01T09:13:38;12.13;;;4.90;;
261;SDS011;114;48.260;10.988;2023-06-01T09:16:05;10.57;;;4.70;;
261;SDS011;114;48.260;10.988;2023-06-01T09:18:32;8.83;;;5.33;;
261;SDS011;114;48.260;10.988;2023-06-01T09:21:13;5.27;;;4.13;;
261;SDS011;114;48.260;10.988;2023-06-01T09:23:40;8.40;;;4.60;;
261;SDS011;114;48.260;10.988;2023-06-01T09:26:09;5.10;;;4.03;;
261;SDS011;114;48.260;10.988;2023-06-01T09:31:39;11.83;;;4.67;;
261;SDS011;114;48.260;10.988;2023-06-01T09:34:14;10.07;;;4.43;;
261;SDS011;114;48.260;10.988;2023-06-01T09:36:43;22.87;;;5.17;;
261;SDS011;114;48.260;10.988;2023-06-01T09:39:10;10.20;;;5.20;;
261;SDS011;114;48.260;10.988;2023-06-01T09:41:46;14.47;;;3.93;;
261;SDS011;114;48.260;10.988;2023-06-01T09:44:13;12.27;;;4.60;;
261;SDS011;114;48.260;10.988;2023-06-01T09:46:46;8.27;;;4.70;;
261;SDS011;114;48.260;10.988;2023-06-01T09:49:20;13.93;;;4.27;;
261;SDS011;114;48.260;10.988;2023-06-01T09:54:32;6.07;;;4.33;;
261;SDS011;114;48.260;10.988;2023-06-01T09:57:08;6.37;;;4.00;;
261;SDS011;114;48.260;10.988;2023-06-01T09:59:38;24.03;;;3.97;;
261;SDS011;114;48.260;10.988;2023-06-01T10:02:11;5.20;;;4.00;;
261;SDS011;114;48.260;10.988;2023-06-01T10:04:46;6.10;;;4.50;;
261;SDS011;114;48.260;10.988;2023-06-01T10:07:18;10.03;;;4.57;;
261;SDS011;114;48.260;10.988;2023-06-01T10:09:51;11.53;;;4.23;;
261;SDS011;114;48.260;10.988;2023-06-01T10:12:22;7.80;;;4.60;;
261;SDS011;114;48.260;10.988;2023-06-01T10:14:53;6.07;;;4.50;;
261;SDS011;114;48.260;10.988;2023-06-01T10:17:20;6.03;;;4.17;;
261;SDS011;114;48.260;10.988;2023-06-01T10:19:46;4.87;;;4.40;;
261;SDS011;114;48.260;10.988;2023-06-01T10:22:12;11.13;;;4.33;;
261;SDS011;114;48.260;10.988;2023-06-01T10:24:39;13.17;;;3.80;;
261;SDS011;114;48.260;10.988;2023-06-01T10:29:39;3.93;;;3.60;;
261;SDS011;114;48.260;10.988;2023-06-01T10:32:37;4.27;;;3.87;;
261;SDS011;114;48.260;10.988;2023-06-01T10:40:42;6.43;;;4.47;;
261;SDS011;114;48.260;10.988;2023-06-01T10:49:02;7.00;;;4.50;;
261;SDS011;114;48.260;10.988;2023-06-01T10:51:28;11.73;;;4.17;;
261;SDS011;114;48.260;10.988;2023-06-01T10:53:54;11.50;;;4.20;;
261;SDS011;114;48.260;10.988;2023-06-01T10:56:40;5.57;;;3.60;;
261;SDS011;114;48.260;10.988;2023-06-01T11:01:38;8.27;;;4.67;;
261;SDS011;114;48.260;10.988;2023-06-01T11:04:05;15.30;;;4.90;;
261;SDS011;114;48.260;10.988;2023-06-01T11:06:32;5.73;;;4.60;;
261;SDS011;114;48.260;10.988;2023-06-01T11:09:11;7.60;;;4.10;;
261;SDS011;114;48.260;10.988;2023-06-01T11:14:23;7.60;;;4.20;;
261;SDS011;114;48.260;10.988;2023-06-01T11:16:50;6.70;;;4.30;;
261;SDS011;114;48.260;10.988;2023-06-01T11:19:18;10.40;;;4.40;;
261;SDS011;114;48.260;10.988;2023-06-01T11:21:54;5.57;;;3.80;;
261;SDS011;114;48.260;10.988;2023-06-01T11:24:30;7.50;;;4.23;;
261;SDS011;114;48.260;10.988;2023-06-01T11:26:59;5.47;;;4.20;;
261;SDS011;114;48.260;10.988;2023-06-01T11:29:31;14.40;;;4.93;;
261;SDS011;114;48.260;10.988;2023-06-01T11:31:58;5.30;;;4.50;;
261;SDS011;114;48.260;10.988;2023-06-01T11:34:35;5.40;;;4.73;;
261;SDS011;114;48.260;10.988;2023-06-01T11:37:13;8.40;;;4.23;;
261;SDS011;114;48.260;10.988;2023-06-01T11:39:40;9.10;;;4.63;;
261;SDS011;114;48.260;10.988;2023-06-01T11:44:45;7.47;;;4.47;;
261;SDS011;114;48.260;10.988;2023-06-01T11:47:20;5.60;;;4.57;;
261;SDS011;114;48.260;10.988;2023-06-01T11:49:47;6.70;;;4.47;;
261;SDS011;114;48.260;10.988;2023-06-01T11:52:14;7.97;;;4.57;;
261;SDS011;114;48.260;10.988;2023-06-01T11:54:40;11.20;;;4.47;;
261;SDS011;114;48.260;10.988;2023-06-01T11:57:06;4.60;;;4.20;;
261;SDS011;114;48.260;10.988;2023-06-01T11:59:46;8.60;;;3.80;;
261;SDS011;114;48.260;10.988;2023-06-01T12:02:20;4.90;;;4.30;;
261;SDS011;114;48.260;10.988;2023-06-01T12:04:54;8.13;;;3.78;;
261;SDS011;114;48.260;10.988;2023-06-01T12:07:24;8.77;;;4.20;;
261;SDS011;114;48.260;10.988;2023-06-01T12:09:54;8.43;;;4.28;;
261;SDS011;114;48.260;10.988;2023-06-01T12:12:24;6.75;;;4.43;;
261;SDS011;114;48.260;10.988;2023-06-01T12:14:50;8.98;;;3.92;;
261;SDS011;114;48.260;10.988;2023-06-01T12:17:17;10.32;;;4.28;;
261;SDS011;114;48.260;10.988;2023-06-01T12:19:44;4.93;;;4.00;;
261;SDS011;114;48.260;10.988;2023-06-01T12:22:13;5.00;;;3.70;;
261;SDS011;114;48.260;10.988;2023-06-01T12:24:40;4.38;;;3.97;;
261;SDS011;114;48.260;10.988;2023-06-01T12:27:15;4.18;;;3.65;;
261;SDS011;114;48.260;10.988;2023-06-01T12:29:44;5.40;;;3.83;;
261;SDS011;114;48.260;10.988;2023-06-01T12:32:12;4.22;;;3.75;;
261;SDS011;114;48.260;10.988;2023-06-01T12:34:40;5.97;;;3.53;;
261;SDS011;114;48.260;10.988;2023-06-01T12:37:13;7.10;;;4.13;;
261;SDS011;114;48.260;10.988;2023-06-01T12:39:52;9.63;;;3.60;;
261;SDS011;114;48.260;10.988;2023-06-01T12:42:19;5.63;;;3.70;;
261;SDS011;114;48.260;10.988;2023-06-01T12:44:59;9.30;;;4.20;;
261;SDS011;114;48.260;10.988;2023-06-01T12:47:25;5.22;;;3.75;;
261;SDS011;114;48.260;10.988;2023-06-01T12:50:04;9.93;;;4.18;;
261;SDS011;114;48.260;10.988;2023-06-01T12:52:31;5.47;;;3.97;;
261;SDS011;114;48.260;10.988;2023-06-01T12:54:57;9.68;;;4.70;;
261;SDS011;114;48.260;10.988;2023-06-01T12:57:22;4.78;;;4.22;;
261;SDS011;114;48.260;10.988;2023-06-01T12:59:48;8.82;;;3.72;;
261;SDS011;114;48.260;10.988;2023-06-01T13:02:14;4.00;;;3.70;;
261;SDS011;114;48.260;10.988;2023-06-01T13:04:40;5.68;;;4.00;;
261;SDS011;114;48.260;10.988;2023-06-01T13:07:07;8.07;;;3.92;;
261;SDS011;114;48.260;10.988;2023-06-01T13:09:32;6.15;;;4.20;;
261;SDS011;114;48.260;10.988;2023-06-01T13:11:58;8.05;;;3.95;;
261;SDS011;114;48.260;10.988;2023-06-01T13:14:24;6.72;;;4.45;;
261;SDS011;114;48.260;10.988;2023-06-01T13:16:50;5.78;;;3.85;;
261;SDS011;114;48.260;10.988;2023-06-01T13:19:16;6.22;;;4.05;;
261;SDS011;114;48.260;10.988;2023-06-01T13:21:42;4.18;;;3.67;;
261;SDS011;114;48.260;10.988;2023-06-01T13:24:08;7.00;;;4.15;;
261;SDS011;114;48.260;10.988;2023-06-01T13:26:35;4.00;;;3.60;;
261;SDS011;114;48.260;10.988;2023-06-01T13:29:01;4.43;;;4.05;;
261;SDS011;114;48.260;10.988;2023-06-01T13:31:31;8.30;;;3.28;;
261;SDS011;114;48.260;10.988;2023-06-01T13:33:58;5.18;;;3.65;;
261;SDS011;114;48.260;10.988;2023-06-01T13:36:24;6.80;;;4.53;;
261;SDS011;114;48.260;10.988;2023-06-01T13:38:49;3.88;;;3.45;;
261;SDS011;114;48.260;10.988;2023-06-01T13:41:15;7.55;;;3.60;;
261;SDS011;114;48.260;10.988;2023-06-01T13:43:41;6.85;;;3.28;;
261;SDS011;114;48.260;10.988;2023-06-01T13:46:06;3.53;;;3.17;;
261;SDS011;114;48.260;10.988;2023-06-01T13:48:34;3.90;;;3.60;;
261;SDS011;114;48.260;10.988;2023-06-01T13:51:00;4.60;;;2.97;;
261;SDS011;114;48.260;10.988;2023-06-01T13:53:26;4.85;;;3.67;;
261;SDS011;114;48.260;10.988;2023-06-01T13:55:52;3.33;;;3.13;;
261;SDS011;114;48.260;10.988;2023-06-01T13:58:19;4.03;;;2.70;;
261;SDS011;114;48.260;10.988;2023-06-01T14:00:44;3.05;;;2.95;;
261;SDS011;114;48.260;10.988;2023-06-01T14:03:10;6.57;;;3.08;;
261;SDS011;114;48.260;10.988;2023-06-01T14:05:36;3.78;;;2.53;;
261;SDS011;114;48.260;10.988;2023-06-01T14:08:01;4.45;;;3.53;;
261;SDS011;114;48.260;10.988;2023-06-01T14:10:29;7.13;;;3.47;;
261;SDS011;114;48.260;10.988;2023-06-01T14:12:56;3.10;;;2.92;;
261;SDS011;114;48.260;10.988;2023-06-01T14:15:22;3.30;;;2.33;;
261;SDS011;114;48.260;10.988;2023-06-01T14:17:47;2.83;;;2.53;;
261;SDS011;114;48.260;10.988;2023-06-01T14:20:15;6.78;;;3.47;;
261;SDS011;114;48.260;10.988;2023-06-01T14:22:41;6.13;;;3.05;;
261;SDS011;114;48.260;10.988;2023-06-01T14:25:07;6.10;;;3.55;;
261;SDS011;114;48.260;10.988;2023-06-01T14:27:33;4.15;;;3.20;;
261;SDS011;114;48.260;10.988;2023-06-01T14:29:59;8.43;;;3.40;;
261;SDS011;114;48.260;10.988;2023-06-01T14:32:28;5.60;;;2.88;;
261;SDS011;114;48.260;10.988;2023-06-01T14:34:54;12.60;;;3.50;;
261;SDS011;114;48.260;10.988;2023-06-01T14:37:19;4.32;;;3.85;;
261;SDS011;114;48.260;10.988;2023-06-01T14:39:45;4.97;;;3.80;;
261;SDS011;114;48.260;10.988;2023-06-01T14:42:11;7.25;;;3.65;;
261;SDS011;114;48.260;10.988;2023-06-01T14:44:37;7.30;;;3.10;;
261;SDS011;114;48.260;10.988;2023-06-01T14:47:03;7.82;;;3.50;;
261;SDS011;114;48.260;10.988;2023-06-01T14:49:29;5.13;;;3.60;;
261;SDS011;114;48.260;10.988;2023-06-01T14:51:55;6.15;;;3.42;;
261;SDS011;114;48.260;10.988;2023-06-01T14:54:21;6.88;;;2.67;;
261;SDS011;114;48.260;10.988;2023-06-01T14:56:46;2.78;;;2.67;;
261;SDS011;114;48.260;10.988;2023-06-01T14:59:12;8.30;;;3.67;;
261;SDS011;114;48.260;10.988;2023-06-01T15:01:38;4.18;;;3.03;;
261;SDS011;114;48.260;10.988;2023-06-01T15:04:05;3.17;;;2.53;;
261;SDS011;114;48.260;10.988;2023-06-01T15:06:31;3.70;;;3.03;;
261;SDS011;114;48.260;10.988;2023-06-01T15:08:57;5.70;;;3.28;;
261;SDS011;114;48.260;10.988;2023-06-01T15:11:23;3.10;;;2.80;;
261;SDS011;114;48.260;10.988;2023-06-01T15:13:49;2.60;;;2.40;;
261;SDS011;114;48.260;10.988;2023-06-01T15:16:15;4.18;;;2.95;;
261;SDS011;114;48.260;10.988;2023-06-01T15:18:41;4.15;;;3.08;;
261;SDS011;114;48.260;10.988;2023-06-01T15:21:06;5.78;;;2.70;;
261;SDS011;114;48.260;10.988;2023-06-01T15:23:32;3.53;;;3.22;;
261;SDS011;114;48.260;10.988;2023-06-01T15:25:58;3.67;;;2.88;;
261;SDS011;114;48.260;10.988;2023-06-01T15:28:24;5.07;;;3.53;;
261;SDS011;114;48.260;10.988;2023-06-01T15:30:50;7.80;;;3.70;;
261;SDS011;114;48.260;10.988;2023-06-01T15:33:16;4.20;;;3.40;;
261;SDS011;114;48.260;10.988;2023-06-01T15:35:41;5.93;;;3.40;;
261;SDS011;114;48.260;10.988;2023-06-01T15:38:07;5.13;;;3.13;;
261;SDS011;114;48.260;10.988;2023-06-01T15:40:33;3.67;;;3.22;;
261;SDS011;114;48.260;10.988;2023-06-01T15:42:58;10.23;;;3.42;;
261;SDS011;114;48.260;10.988;2023-06-01T15:45:24;3.15;;;2.85;;
261;SDS011;114;48.260;10.988;2023-06-01T15:47:50;5.93;;;3.47;;
261;SDS011;114;48.260;10.988;2023-06-01T15:50:17;7.25;;;4.15;;
261;SDS011;114;48.260;10.988;2023-06-01T15:52:42;5.07;;;3.45;;
261;SDS011;114;48.260;10.988;2023-06-01T15:55:08;8.50;;;3.83;;
261;SDS011;114;48.260;10.988;2023-06-01T15:57:34;5.97;;;3.95;;
261;SDS011;114;48.260;10.988;2023-06-01T16:00:00;4.30;;;3.08;;
261;SDS011;114;48.260;10.988;2023-06-01T16:02:26;4.50;;;3.35;;
261;SDS011;114;48.260;10.988;2023-06-01T16:04:52;4.68;;;3.30;;
261;SDS011;114;48.260;10.988;2023-06-01T16:07:17;6.97;;;3.55;;